sensor_id;sensor_type;location;lat;lon;timestamp;temperature;humidity
26621;DHT22;14253;44.840;10.444;2023-07-13T00:00:35;25.60;99.90
26621;DHT22;14253;44.840;10.444;2023-07-13T00:03:02;25.50;99.90
26621;DHT22;14253;44.840;10.444;2023-07-13T00:05:28;25.50;99.90
26621;DHT22;14253;44.840;10.444;2023-07-13T00:07:54;25.40;99.90
26621;DHT22;14253;44.840;10.444;2023-07-13T00:10:21;25.40;99.90
26621;DHT22;14253;44.840;10.444;2023-07-13T00:12:47;25.40;99.90
26621;DHT22;14253;44.840;10.444;2023-07-13T00:15:18;25.40;99.90
26621;DHT22;14253;44.840;10.444;2023-07-13T00:17:53;25.30;99.90
26621;DHT22;14253;44.840;10.444;2023-07-13T00:20:20;25.30;99.90
26621;DHT22;14253;44.840;10.444;2023-07-13T00:22:51;25.30;99.90
26621;DHT22;14253;44.840;10.444;2023-07-13T00:25:21;25.30;99.90
26621;DHT22;14253;44.840;10.444;2023-07-13T00:27:51;25.20;99.90
26621;DHT22;14253;44.840;10.444;2023-07-13T00:30:17;25.20;99.90
26621;DHT22;14253;44.840;10.444;2023-07-13T00:32:43;25.10;99.90
26621;DHT22;14253;44.840;10.444;2023-07-13T00:35:09;25.10;99.90
26621;DHT22;14253;44.840;10.444;2023-07-13T00:37:35;25.10;99.90
26621;DHT22;14253;44.840;10.444;2023-07-13T00:40:06;25.00;99.90
26621;DHT22;14253;44.840;10.444;2023-07-13T00:42:32;25.10;99.90
26621;DHT22;14253;44.840;10.444;2023-07-13T00:45:06;25.10;99.90
26621;DHT22;14253;44.840;10.444;2023-07-13T00:47:33;25.10;99.90
26621;DHT22;14253;44.840;10.444;2023-07-13T00:50:00;25.10;99.90
26621;DHT22;14253;44.840;10.444;2023-07-13T00:52:27;25.10;99.90
26621;DHT22;14253;44.840;10.444;2023-07-13T00:54:54;25.10;99.90
26621;DHT22;14253;44.840;10.444;2023-07-13T00:57:21;25.10;99.90
26621;DHT22;14253;44.840;10.444;2023-07-13T00:59:50;25.10;99.90
26621;DHT22;14253;44.840;10.444;2023-07-13T01:02:17;25.20;99.90
26621;DHT22;14253;44.840;10.444;2023-07-13T01:04:43;25.20;99.90
26621;DHT22;14253;44.840;10.444;2023-07-13T01:07:11;25.10;99.90
26621;DHT22;14253;44.840;10.444;2023-07-13T01:09:38;25.10;99.90
26621;DHT22;14253;44.840;10.444;2023-07-13T01:12:04;25.10;99.90
26621;DHT22;14253;44.840;10.444;2023-07-13T01:14:30;25.00;99.90
26621;DHT22;14253;44.840;10.444;2023-07-13T01:16:56;24.90;99.90
26621;DHT22;14253;44.840;10.444;2023-07-13T01:19:33;24.90;99.90
26621;DHT22;14253;44.840;10.444;2023-07-13T01:22:08;24.80;99.90
26621;DHT22;14253;44.840;10.444;2023-07-13T01:24:38;24.80;99.90
26621;DHT22;14253;44.840;10.444;2023-07-13T01:27:06;24.90;99.90
26621;DHT22;14253;44.840;10.444;2023-07-13T01:29:33;24.90;99.90
26621;DHT22;14253;44.840;10.444;2023-07-13T01:32:00;24.80;99.90
26621;DHT22;14253;44.840;10.444;2023-07-13T01:34:27;24.80;99.90
26621;DHT22;14253;44.840;10.444;2023-07-13T01:36:53;24.80;99.90
26621;DHT22;14253;44.840;10.444;2023-07-13T01:39:22;24.70;99.90
26621;DHT22;14253;44.840;10.444;2023-07-13T01:41:49;24.80;99.90
26621;DHT22;14253;44.840;10.444;2023-07-13T01:44:15;24.80;99.90
26621;DHT22;14253;44.840;10.444;2023-07-13T01:46:40;24.70;99.90
26621;DHT22;14253;44.840;10.444;2023-07-13T01:49:06;24.70;99.90
26621;DHT22;14253;44.840;10.444;2023-07-13T01:51:32;24.60;99.90
26621;DHT22;14253;44.840;10.444;2023-07-13T01:53:58;24.50;99.90
26621;DHT22;14253;44.840;10.444;2023-07-13T01:56:24;24.50;99.90
26621;DHT22;14253;44.840;10.444;2023-07-13T01:58:52;24.50;99.90
26621;DHT22;14253;44.840;10.444;2023-07-13T02:01:18;24.60;99.90
26621;DHT22;14253;44.840;10.444;2023-07-13T02:03:44;24.60;99.90
26621;DHT22;14253;44.840;10.444;2023-07-13T02:06:10;24.60;99.90
26621;DHT22;14253;44.840;10.444;2023-07-13T02:08:37;24.70;99.90
26621;DHT22;14253;44.840;10.444;2023-07-13T02:11:03;24.60;99.90
26621;DHT22;14253;44.840;10.444;2023-07-13T02:13:29;24.50;99.90
26621;DHT22;14253;44.840;10.444;2023-07-13T02:15:55;24.30;99.90
26621;DHT22;14253;44.840;10.444;2023-07-13T02:18:21;24.30;99.90
26621;DHT22;14253;44.840;10.444;2023-07-13T02:20:47;24.20;99.90
26621;DHT22;14253;44.840;10.444;2023-07-13T02:23:13;24.10;99.90
26621;DHT22;14253;44.840;10.444;2023-07-13T02:25:39;24.00;99.90
26621;DHT22;14253;44.840;10.444;2023-07-13T02:28:05;24.10;99.90
26621;DHT22;14253;44.840;10.444;2023-07-13T02:30:31;24.10;99.90
26621;DHT22;14253;44.840;10.444;2023-07-13T02:32:57;24.10;99.90
26621;DHT22;14253;44.840;10.444;2023-07-13T02:35:23;24.00;99.90
26621;DHT22;14253;44.840;10.444;2023-07-13T02:37:49;24.10;99.90
26621;DHT22;14253;44.840;10.444;2023-07-13T02:40:16;24.20;99.90
26621;DHT22;14253;44.840;10.444;2023-07-13T02:42:42;24.20;99.90
26621;DHT22;14253;44.840;10.444;2023-07-13T02:45:08;24.10;99.90
26621;DHT22;14253;44.840;10.444;2023-07-13T02:47:35;24.10;99.90
26621;DHT22;14253;44.840;10.444;2023-07-13T02:50:02;24.10;99.90
26621;DHT22;14253;44.840;10.444;2023-07-13T02:52:29;24.20;99.90
26621;DHT22;14253;44.840;10.444;2023-07-13T02:54:55;24.20;99.90
26621;DHT22;14253;44.840;10.444;2023-07-13T02:57:21;24.10;99.90
26621;DHT22;14253;44.840;10.444;2023-07-13T02:59:47;24.10;99.90
26621;DHT22;14253;44.840;10.444;2023-07-13T03:02:13;24.10;99.90
26621;DHT22;14253;44.840;10.444;2023-07-13T03:04:39;24.10;99.90
26621;DHT22;14253;44.840;10.444;2023-07-13T03:07:07;24.00;99.90
26621;DHT22;14253;44.840;10.444;2023-07-13T03:09:36;24.00;99.90
26621;DHT22;14253;44.840;10.444;2023-07-13T03:12:05;24.10;99.90
26621;DHT22;14253;44.840;10.444;2023-07-13T03:14:32;24.10;99.90
26621;DHT22;14253;44.840;10.444;2023-07-13T03:17:00;24.10;99.90
26621;DHT22;14253;44.840;10.444;2023-07-13T03:19:30;24.00;99.90
26621;DHT22;14253;44.840;10.444;2023-07-13T03:21:56;24.00;99.90
26621;DHT22;14253;44.840;10.444;2023-07-13T03:24:22;23.90;99.90
26621;DHT22;14253;44.840;10.444;2023-07-13T03:26:51;24.00;99.90
26621;DHT22;14253;44.840;10.444;2023-07-13T03:29:18;24.10;99.90
26621;DHT22;14253;44.840;10.444;2023-07-13T03:31:44;24.00;99.90
26621;DHT22;14253;44.840;10.444;2023-07-13T03:34:10;24.00;99.90
26621;DHT22;14253;44.840;10.444;2023-07-13T03:36:37;24.00;99.90
26621;DHT22;14253;44.840;10.444;2023-07-13T03:39:09;23.90;99.90
26621;DHT22;14253;44.840;10.444;2023-07-13T03:41:47;23.80;99.90
26621;DHT22;14253;44.840;10.444;2023-07-13T03:44:15;23.80;99.90
26621;DHT22;14253;44.840;10.444;2023-07-13T03:46:41;23.80;99.90
26621;DHT22;14253;44.840;10.444;2023-07-13T03:49:09;23.80;99.90
26621;DHT22;14253;44.840;10.444;2023-07-13T03:51:35;23.90;99.90
26621;DHT22;14253;44.840;10.444;2023-07-13T03:54:01;23.90;99.90
26621;DHT22;14253;44.840;10.444;2023-07-13T03:56:28;23.80;99.90
26621;DHT22;14253;44.840;10.444;2023-07-13T03:58:56;23.80;99.90
26621;DHT22;14253;44.840;10.444;2023-07-13T04:01:24;23.70;99.90
26621;DHT22;14253;44.840;10.444;2023-07-13T04:03:53;23.50;99.90
26621;DHT22;14253;44.840;10.444;2023-07-13T04:06:25;23.50;99.90
26621;DHT22;14253;44.840;10.444;2023-07-13T04:08:54;23.50;99.90
26621;DHT22;14253;44.840;10.444;2023-07-13T04:11:23;23.50;99.90
26621;DHT22;14253;44.840;10.444;2023-07-13T04:13:50;23.50;99.90
26621;DHT22;14253;44.840;10.444;2023-07-13T04:16:17;23.50;99.90
26621;DHT22;14253;44.840;10.444;2023-07-13T04:18:44;23.50;99.90
26621;DHT22;14253;44.840;10.444;2023-07-13T04:21:11;23.50;99.90
26621;DHT22;14253;44.840;10.444;2023-07-13T04:23:38;23.50;99.90
26621;DHT22;14253;44.840;10.444;2023-07-13T04:26:05;23.50;99.90
26621;DHT22;14253;44.840;10.444;2023-07-13T04:28:32;23.50;99.90
26621;DHT22;14253;44.840;10.444;2023-07-13T04:30:58;23.50;99.90
26621;DHT22;14253;44.840;10.444;2023-07-13T04:33:24;23.60;99.90
26621;DHT22;14253;44.840;10.444;2023-07-13T04:35:51;23.50;99.90
26621;DHT22;14253;44.840;10.444;2023-07-13T04:38:20;23.50;99.90
26621;DHT22;14253;44.840;10.444;2023-07-13T04:40:47;23.50;99.90
26621;DHT22;14253;44.840;10.444;2023-07-13T04:43:13;23.60;99.90
26621;DHT22;14253;44.840;10.444;2023-07-13T04:45:39;23.60;99.90
26621;DHT22;14253;44.840;10.444;2023-07-13T04:48:05;23.60;99.90
26621;DHT22;14253;44.840;10.444;2023-07-13T04:50:31;23.60;99.90
26621;DHT22;14253;44.840;10.444;2023-07-13T04:52:57;23.70;99.90
26621;DHT22;14253;44.840;10.444;2023-07-13T04:55:23;23.60;99.90
26621;DHT22;14253;44.840;10.444;2023-07-13T04:57:50;23.50;99.90
26621;DHT22;14253;44.840;10.444;2023-07-13T05:00:16;23.50;99.90
26621;DHT22;14253;44.840;10.444;2023-07-13T05:02:44;23.40;99.90
26621;DHT22;14253;44.840;10.444;2023-07-13T05:05:11;23.20;99.90
26621;DHT22;14253;44.840;10.444;2023-07-13T05:07:37;23.30;99.90
26621;DHT22;14253;44.840;10.444;2023-07-13T05:10:03;23.30;99.90
26621;DHT22;14253;44.840;10.444;2023-07-13T05:12:30;23.20;99.90
26621;DHT22;14253;44.840;10.444;2023-07-13T05:14:56;23.30;99.90
26621;DHT22;14253;44.840;10.444;2023-07-13T05:17:22;23.30;99.90
26621;DHT22;14253;44.840;10.444;2023-07-13T05:19:48;23.20;99.90
26621;DHT22;14253;44.840;10.444;2023-07-13T05:22:24;23.10;99.90
26621;DHT22;14253;44.840;10.444;2023-07-13T05:25:08;23.10;99.90
26621;DHT22;14253;44.840;10.444;2023-07-13T05:27:36;23.10;99.90
26621;DHT22;14253;44.840;10.444;2023-07-13T05:30:03;23.20;99.90
26621;DHT22;14253;44.840;10.444;2023-07-13T05:32:29;23.20;99.90
26621;DHT22;14253;44.840;10.444;2023-07-13T05:34:55;23.30;99.90
26621;DHT22;14253;44.840;10.444;2023-07-13T05:37:21;23.30;99.90
26621;DHT22;14253;44.840;10.444;2023-07-13T05:39:47;23.50;99.90
26621;DHT22;14253;44.840;10.444;2023-07-13T05:42:13;23.60;99.90
26621;DHT22;14253;44.840;10.444;2023-07-13T05:44:40;23.70;99.90
26621;DHT22;14253;44.840;10.444;2023-07-13T05:47:06;23.80;99.90
26621;DHT22;14253;44.840;10.444;2023-07-13T05:49:32;23.90;99.90
26621;DHT22;14253;44.840;10.444;2023-07-13T05:51:58;24.10;99.90
26621;DHT22;14253;44.840;10.444;2023-07-13T05:54:24;24.10;99.90
26621;DHT22;14253;44.840;10.444;2023-07-13T05:56:50;24.10;99.90
26621;DHT22;14253;44.840;10.444;2023-07-13T05:59:17;24.20;99.90
26621;DHT22;14253;44.840;10.444;2023-07-13T06:01:43;24.20;99.90
26621;DHT22;14253;44.840;10.444;2023-07-13T06:04:09;24.20;99.90
26621;DHT22;14253;44.840;10.444;2023-07-13T06:06:35;24.30;99.90
26621;DHT22;14253;44.840;10.444;2023-07-13T06:09:01;24.30;99.90
26621;DHT22;14253;44.840;10.444;2023-07-13T06:11:27;24.30;99.90
26621;DHT22;14253;44.840;10.444;2023-07-13T06:13:55;24.40;99.90
26621;DHT22;14253;44.840;10.444;2023-07-13T06:16:22;24.30;99.90
26621;DHT22;14253;44.840;10.444;2023-07-13T06:18:48;24.30;99.90
26621;DHT22;14253;44.840;10.444;2023-07-13T06:21:17;24.20;99.90
26621;DHT22;14253;44.840;10.444;2023-07-13T06:23:45;24.10;99.90
26621;DHT22;14253;44.840;10.444;2023-07-13T06:26:18;24.20;99.90
26621;DHT22;14253;44.840;10.444;2023-07-13T06:28:48;24.20;99.90
26621;DHT22;14253;44.840;10.444;2023-07-13T06:31:16;24.10;99.90
26621;DHT22;14253;44.840;10.444;2023-07-13T06:33:43;24.10;99.90
26621;DHT22;14253;44.840;10.444;2023-07-13T06:36:09;24.10;99.90
26621;DHT22;14253;44.840;10.444;2023-07-13T06:38:36;24.10;99.90
26621;DHT22;14253;44.840;10.444;2023-07-13T06:41:02;24.10;99.90
26621;DHT22;14253;44.840;10.444;2023-07-13T06:43:28;24.10;99.90
26621;DHT22;14253;44.840;10.444;2023-07-13T06:45:56;24.10;99.90
26621;DHT22;14253;44.840;10.444;2023-07-13T06:48:22;23.90;99.90
26621;DHT22;14253;44.840;10.444;2023-07-13T06:50:49;23.80;99.90
26621;DHT22;14253;44.840;10.444;2023-07-13T06:53:15;23.70;99.90
26621;DHT22;14253;44.840;10.444;2023-07-13T06:55:43;23.60;99.90
26621;DHT22;14253;44.840;10.444;2023-07-13T06:58:10;23.60;99.90
26621;DHT22;14253;44.840;10.444;2023-07-13T07:00:37;23.60;99.90
26621;DHT22;14253;44.840;10.444;2023-07-13T07:03:06;23.60;99.90
26621;DHT22;14253;44.840;10.444;2023-07-13T07:05:33;23.50;99.90
26621;DHT22;14253;44.840;10.444;2023-07-13T07:08:00;23.50;99.90
26621;DHT22;14253;44.840;10.444;2023-07-13T07:10:28;23.60;99.90
26621;DHT22;14253;44.840;10.444;2023-07-13T07:12:55;23.60;99.90
26621;DHT22;14253;44.840;10.444;2023-07-13T07:15:21;23.60;99.90
26621;DHT22;14253;44.840;10.444;2023-07-13T07:17:47;23.60;99.90
26621;DHT22;14253;44.840;10.444;2023-07-13T07:20:13;23.70;99.90
26621;DHT22;14253;44.840;10.444;2023-07-13T07:22:39;23.70;99.90
26621;DHT22;14253;44.840;10.444;2023-07-13T07:25:05;23.80;99.90
26621;DHT22;14253;44.840;10.444;2023-07-13T07:27:31;23.70;99.90
26621;DHT22;14253;44.840;10.444;2023-07-13T07:29:58;23.60;99.90
26621;DHT22;14253;44.840;10.444;2023-07-13T07:32:24;23.60;99.90
26621;DHT22;14253;44.840;10.444;2023-07-13T07:34:50;23.50;99.90
26621;DHT22;14253;44.840;10.444;2023-07-13T07:37:16;23.40;99.90
26621;DHT22;14253;44.840;10.444;2023-07-13T07:39:45;23.40;99.90
26621;DHT22;14253;44.840;10.444;2023-07-13T07:42:12;23.30;99.90
26621;DHT22;14253;44.840;10.444;2023-07-13T07:44:40;23.20;99.90
26621;DHT22;14253;44.840;10.444;2023-07-13T07:47:07;23.20;99.90
26621;DHT22;14253;44.840;10.444;2023-07-13T07:49:35;23.30;99.90
26621;DHT22;14253;44.840;10.444;2023-07-13T07:52:01;23.70;99.90
26621;DHT22;14253;44.840;10.444;2023-07-13T07:54:27;23.80;99.90
26621;DHT22;14253;44.840;10.444;2023-07-13T07:56:53;23.60;99.90
26621;DHT22;14253;44.840;10.444;2023-07-13T07:59:19;23.30;99.90
26621;DHT22;14253;44.840;10.444;2023-07-13T08:01:45;23.30;99.90
26621;DHT22;14253;44.840;10.444;2023-07-13T08:04:13;23.20;99.90
26621;DHT22;14253;44.840;10.444;2023-07-13T08:06:39;23.10;99.90
26621;DHT22;14253;44.840;10.444;2023-07-13T08:09:05;23.10;99.90
26621;DHT22;14253;44.840;10.444;2023-07-13T08:11:32;23.10;99.90
26621;DHT22;14253;44.840;10.444;2023-07-13T08:13:58;23.10;99.90
26621;DHT22;14253;44.840;10.444;2023-07-13T08:16:24;23.10;99.90
26621;DHT22;14253;44.840;10.444;2023-07-13T08:18:50;23.20;99.90
26621;DHT22;14253;44.840;10.444;2023-07-13T08:21:16;23.20;99.90
26621;DHT22;14253;44.840;10.444;2023-07-13T08:23:42;23.10;99.90
26621;DHT22;14253;44.840;10.444;2023-07-13T08:26:09;23.10;99.90
26621;DHT22;14253;44.840;10.444;2023-07-13T08:28:35;23.20;99.90
26621;DHT22;14253;44.840;10.444;2023-07-13T08:31:06;23.20;99.90
26621;DHT22;14253;44.840;10.444;2023-07-13T08:33:35;23.20;99.90
26621;DHT22;14253;44.840;10.444;2023-07-13T08:36:01;23.10;99.90
26621;DHT22;14253;44.840;10.444;2023-07-13T08:38:27;23.10;99.90
26621;DHT22;14253;44.840;10.444;2023-07-13T08:40:55;23.10;99.90
26621;DHT22;14253;44.840;10.444;2023-07-13T08:43:33;22.90;99.90
26621;DHT22;14253;44.840;10.444;2023-07-13T08:46:16;22.80;99.90
26621;DHT22;14253;44.840;10.444;2023-07-13T08:48:50;22.80;99.90
26621;DHT22;14253;44.840;10.444;2023-07-13T08:51:45;22.80;99.90
26621;DHT22;14253;44.840;10.444;2023-07-13T08:54:35;22.80;99.90
26621;DHT22;14253;44.840;10.444;2023-07-13T08:57:10;22.90;99.90
26621;DHT22;14253;44.840;10.444;2023-07-13T08:59:38;23.00;99.90
26621;DHT22;14253;44.840;10.444;2023-07-13T09:02:20;23.10;99.90
26621;DHT22;14253;44.840;10.444;2023-07-13T09:04:59;23.10;99.90
26621;DHT22;14253;44.840;10.444;2023-07-13T09:10:22;23.40;99.90
26621;DHT22;14253;44.840;10.444;2023-07-13T09:15:32;24.10;99.90
26621;DHT22;14253;44.840;10.444;2023-07-13T09:21:10;23.80;99.90
26621;DHT22;14253;44.840;10.444;2023-07-13T09:23:38;23.70;99.90
26621;DHT22;14253;44.840;10.444;2023-07-13T09:26:18;23.90;99.90
26621;DHT22;14253;44.840;10.444;2023-07-13T09:28:57;24.10;99.90
26621;DHT22;14253;44.840;10.444;2023-07-13T09:31:44;24.30;99.90
26621;DHT22;14253;44.840;10.444;2023-07-13T09:34:12;25.30;99.90
26621;DHT22;14253;44.840;10.444;2023-07-13T09:36:39;26.10;99.90
26621;DHT22;14253;44.840;10.444;2023-07-13T09:41:54;26.90;99.90
26621;DHT22;14253;44.840;10.444;2023-07-13T09:44:31;27.60;99.90
26621;DHT22;14253;44.840;10.444;2023-07-13T09:46:59;27.90;99.90
26621;DHT22;14253;44.840;10.444;2023-07-13T09:49:27;28.00;99.90
26621;DHT22;14253;44.840;10.444;2023-07-13T09:52:09;28.10;99.90
26621;DHT22;14253;44.840;10.444;2023-07-13T09:54:36;28.20;99.90
26621;DHT22;14253;44.840;10.444;2023-07-13T09:57:26;28.40;99.90
26621;DHT22;14253;44.840;10.444;2023-07-13T09:59:53;28.60;99.90
26621;DHT22;14253;44.840;10.444;2023-07-13T10:02:26;28.60;99.90
26621;DHT22;14253;44.840;10.444;2023-07-13T10:05:03;28.60;99.90
26621;DHT22;14253;44.840;10.444;2023-07-13T10:07:31;28.70;99.90
26621;DHT22;14253;44.840;10.444;2023-07-13T10:10:00;29.00;99.90
26621;DHT22;14253;44.840;10.444;2023-07-13T10:12:28;29.10;99.90
26621;DHT22;14253;44.840;10.444;2023-07-13T10:14:55;29.50;99.90
26621;DHT22;14253;44.840;10.444;2023-07-13T10:17:30;29.80;99.90
26621;DHT22;14253;44.840;10.444;2023-07-13T10:19:59;30.00;99.90
26621;DHT22;14253;44.840;10.444;2023-07-13T10:25:25;29.90;99.90
26621;DHT22;14253;44.840;10.444;2023-07-13T10:27:53;30.00;99.90
26621;DHT22;14253;44.840;10.444;2023-07-13T10:30:23;30.10;99.90
26621;DHT22;14253;44.840;10.444;2023-07-13T10:32:52;30.20;99.90
26621;DHT22;14253;44.840;10.444;2023-07-13T10:35:20;30.00;99.90
26621;DHT22;14253;44.840;10.444;2023-07-13T10:37:55;30.10;99.90
26621;DHT22;14253;44.840;10.444;2023-07-13T10:40:34;30.10;99.90
26621;DHT22;14253;44.840;10.444;2023-07-13T10:43:06;30.40;99.90
26621;DHT22;14253;44.840;10.444;2023-07-13T10:45:36;30.50;99.90
26621;DHT22;14253;44.840;10.444;2023-07-13T10:48:03;30.80;99.90
26621;DHT22;14253;44.840;10.444;2023-07-13T10:50:31;30.80;99.90
26621;DHT22;14253;44.840;10.444;2023-07-13T10:58:28;31.40;99.90
26621;DHT22;14253;44.840;10.444;2023-07-13T11:01:20;31.40;99.90
26621;DHT22;14253;44.840;10.444;2023-07-13T11:03:54;31.30;99.90
26621;DHT22;14253;44.840;10.444;2023-07-13T11:06:39;31.30;99.90
26621;DHT22;14253;44.840;10.444;2023-07-13T11:09:40;31.60;99.90
26621;DHT22;14253;44.840;10.444;2023-07-13T11:15:12;31.80;99.90
26621;DHT22;14253;44.840;10.444;2023-07-13T11:17:54;32.00;99.90
26621;DHT22;14253;44.840;10.444;2023-07-13T11:20:39;32.10;99.90
26621;DHT22;14253;44.840;10.444;2023-07-13T11:25:38;32.10;99.90
26621;DHT22;14253;44.840;10.444;2023-07-13T11:28:12;32.10;99.90
26621;DHT22;14253;44.840;10.444;2023-07-13T11:33:19;31.90;99.90
26621;DHT22;14253;44.840;10.444;2023-07-13T11:41:20;31.60;99.90
26621;DHT22;14253;44.840;10.444;2023-07-13T11:43:53;31.80;99.90
26621;DHT22;14253;44.840;10.444;2023-07-13T11:46:26;32.10;99.90
26621;DHT22;14253;44.840;10.444;2023-07-13T11:48:53;32.20;99.90
26621;DHT22;14253;44.840;10.444;2023-07-13T11:51:31;32.60;99.90
26621;DHT22;14253;44.840;10.444;2023-07-13T11:54:42;33.00;99.90
26621;DHT22;14253;44.840;10.444;2023-07-13T11:56:56;32.80;99.90
26621;DHT22;14253;44.840;10.444;2023-07-13T11:59:23;33.00;99.90
26621;DHT22;14253;44.840;10.444;2023-07-13T12:01:53;33.20;99.90
26621;DHT22;14253;44.840;10.444;2023-07-13T12:04:31;33.40;99.90
26621;DHT22;14253;44.840;10.444;2023-07-13T12:07:07;33.10;99.90
26621;DHT22;14253;44.840;10.444;2023-07-13T12:09:38;32.90;99.90
26621;DHT22;14253;44.840;10.444;2023-07-13T12:12:13;33.00;99.90
26621;DHT22;14253;44.840;10.444;2023-07-13T12:14:40;33.20;99.90
26621;DHT22;14253;44.840;10.444;2023-07-13T12:17:16;33.30;99.90
26621;DHT22;14253;44.840;10.444;2023-07-13T12:19:44;33.50;99.90
26621;DHT22;14253;44.840;10.444;2023-07-13T12:22:13;33.50;99.90
26621;DHT22;14253;44.840;10.444;2023-07-13T12:24:43;33.50;99.90
26621;DHT22;14253;44.840;10.444;2023-07-13T12:27:20;33.70;99.90
26621;DHT22;14253;44.840;10.444;2023-07-13T12:32:43;33.50;99.90
26621;DHT22;14253;44.840;10.444;2023-07-13T12:35:19;33.20;99.90
26621;DHT22;14253;44.840;10.444;2023-07-13T12:37:46;33.30;99.90
26621;DHT22;14253;44.840;10.444;2023-07-13T12:40:17;32.50;99.90
26621;DHT22;14253;44.840;10.444;2023-07-13T12:42:49;32.50;99.90
26621;DHT22;14253;44.840;10.444;2023-07-13T12:45:25;32.70;99.90
26621;DHT22;14253;44.840;10.444;2023-07-13T12:47:59;33.00;99.90
26621;DHT22;14253;44.840;10.444;2023-07-13T12:50:42;32.80;99.90
26621;DHT22;14253;44.840;10.444;2023-07-13T12:53:21;33.20;99.90
26621;DHT22;14253;44.840;10.444;2023-07-13T12:55:53;33.50;99.90
26621;DHT22;14253;44.840;10.444;2023-07-13T12:58:38;33.50;99.90
26621;DHT22;14253;44.840;10.444;2023-07-13T13:01:05;33.30;99.90
26621;DHT22;14253;44.840;10.444;2023-07-13T13:03:39;33.20;99.90
26621;DHT22;14253;44.840;10.444;2023-07-13T13:08:49;33.40;99.90
26621;DHT22;14253;44.840;10.444;2023-07-13T13:11:18;33.30;99.90
26621;DHT22;14253;44.840;10.444;2023-07-13T13:13:45;33.50;99.90
26621;DHT22;14253;44.840;10.444;2023-07-13T13:16:21;33.60;99.90
26621;DHT22;14253;44.840;10.444;2023-07-13T13:18:49;33.40;99.90
26621;DHT22;14253;44.840;10.444;2023-07-13T13:21:17;33.60;99.90
26621;DHT22;14253;44.840;10.444;2023-07-13T13:23:44;33.80;99.90
26621;DHT22;14253;44.840;10.444;2023-07-13T13:26:12;33.60;99.90
26621;DHT22;14253;44.840;10.444;2023-07-13T13:28:39;33.50;99.90
26621;DHT22;14253;44.840;10.444;2023-07-13T13:31:05;33.40;99.90
26621;DHT22;14253;44.840;10.444;2023-07-13T13:33:31;33.50;99.90
26621;DHT22;14253;44.840;10.444;2023-07-13T13:35:58;33.70;99.90
26621;DHT22;14253;44.840;10.444;2023-07-13T13:38:26;33.70;99.90
26621;DHT22;14253;44.840;10.444;2023-07-13T13:40:53;33.70;99.90
26621;DHT22;14253;44.840;10.444;2023-07-13T13:43:24;33.80;99.90
26621;DHT22;14253;44.840;10.444;2023-07-13T13:45:57;34.00;99.90
26621;DHT22;14253;44.840;10.444;2023-07-13T13:48:32;34.20;99.90
26621;DHT22;14253;44.840;10.444;2023-07-13T13:51:00;34.20;99.90
26621;DHT22;14253;44.840;10.444;2023-07-13T13:53:28;34.20;99.90
26621;DHT22;14253;44.840;10.444;2023-07-13T13:55:54;34.40;99.90
26621;DHT22;14253;44.840;10.444;2023-07-13T13:58:21;34.20;99.90
26621;DHT22;14253;44.840;10.444;2023-07-13T14:00:48;34.10;99.90
26621;DHT22;14253;44.840;10.444;2023-07-13T14:03:19;33.90;99.90
26621;DHT22;14253;44.840;10.444;2023-07-13T14:05:47;33.70;99.90
26621;DHT22;14253;44.840;10.444;2023-07-13T14:08:19;33.60;99.90
26621;DHT22;14253;44.840;10.444;2023-07-13T14:10:48;33.30;99.90
26621;DHT22;14253;44.840;10.444;2023-07-13T14:13:27;33.00;99.90
26621;DHT22;14253;44.840;10.444;2023-07-13T14:15:54;32.80;99.90
26621;DHT22;14253;44.840;10.444;2023-07-13T14:18:20;32.50;99.90
26621;DHT22;14253;44.840;10.444;2023-07-13T14:20:47;32.40;99.90
26621;DHT22;14253;44.840;10.444;2023-07-13T14:23:15;32.30;99.90
26621;DHT22;14253;44.840;10.444;2023-07-13T14:25:44;32.30;99.90
26621;DHT22;14253;44.840;10.444;2023-07-13T14:28:22;32.20;99.90
26621;DHT22;14253;44.840;10.444;2023-07-13T14:30:49;32.30;99.90
26621;DHT22;14253;44.840;10.444;2023-07-13T14:33:15;32.20;99.90
26621;DHT22;14253;44.840;10.444;2023-07-13T14:35:42;32.30;99.90
26621;DHT22;14253;44.840;10.444;2023-07-13T14:38:17;32.50;99.90
26621;DHT22;14253;44.840;10.444;2023-07-13T14:40:44;32.60;99.90
26621;DHT22;14253;44.840;10.444;2023-07-13T14:43:14;32.60;99.90
26621;DHT22;14253;44.840;10.444;2023-07-13T14:45:43;32.60;99.90
26621;DHT22;14253;44.840;10.444;2023-07-13T14:48:15;32.80;99.90
26621;DHT22;14253;44.840;10.444;2023-07-13T14:50:41;33.00;99.90
26621;DHT22;14253;44.840;10.444;2023-07-13T14:53:11;33.30;99.90
26621;DHT22;14253;44.840;10.444;2023-07-13T14:55:37;33.20;99.90
26621;DHT22;14253;44.840;10.444;2023-07-13T14:58:03;33.40;99.90
26621;DHT22;14253;44.840;10.444;2023-07-13T15:00:30;33.70;99.90
26621;DHT22;14253;44.840;10.444;2023-07-13T15:02:58;33.80;99.90
26621;DHT22;14253;44.840;10.444;2023-07-13T15:05:27;33.90;99.90
26621;DHT22;14253;44.840;10.444;2023-07-13T15:07:59;33.90;99.90
26621;DHT22;14253;44.840;10.444;2023-07-13T15:10:32;33.90;99.90
26621;DHT22;14253;44.840;10.444;2023-07-13T15:15:44;34.50;99.90
26621;DHT22;14253;44.840;10.444;2023-07-13T15:18:13;34.40;99.90
26621;DHT22;14253;44.840;10.444;2023-07-13T15:20:40;34.00;99.90
26621;DHT22;14253;44.840;10.444;2023-07-13T15:23:08;33.60;99.90
26621;DHT22;14253;44.840;10.444;2023-07-13T15:25:34;33.30;99.90
26621;DHT22;14253;44.840;10.444;2023-07-13T15:28:01;33.00;99.90
26621;DHT22;14253;44.840;10.444;2023-07-13T15:30:31;33.00;99.90
26621;DHT22;14253;44.840;10.444;2023-07-13T15:33:05;32.80;99.90
26621;DHT22;14253;44.840;10.444;2023-07-13T15:35:34;32.60;99.90
26621;DHT22;14253;44.840;10.444;2023-07-13T15:38:00;32.50;99.90
26621;DHT22;14253;44.840;10.444;2023-07-13T15:40:28;32.40;99.90
26621;DHT22;14253;44.840;10.444;2023-07-13T15:42:55;32.40;99.90
26621;DHT22;14253;44.840;10.444;2023-07-13T15:45:23;32.50;99.90
26621;DHT22;14253;44.840;10.444;2023-07-13T15:47:52;32.40;99.90
26621;DHT22;14253;44.840;10.444;2023-07-13T15:50:24;32.40;99.90
26621;DHT22;14253;44.840;10.444;2023-07-13T15:52:54;32.50;99.90
26621;DHT22;14253;44.840;10.444;2023-07-13T15:55:20;32.50;99.90
26621;DHT22;14253;44.840;10.444;2023-07-13T15:57:51;32.40;99.90
26621;DHT22;14253;44.840;10.444;2023-07-13T16:00:25;32.40;99.90
26621;DHT22;14253;44.840;10.444;2023-07-13T16:02:52;32.70;99.90
26621;DHT22;14253;44.840;10.444;2023-07-13T16:05:19;32.90;99.90
26621;DHT22;14253;44.840;10.444;2023-07-13T16:07:46;32.50;99.90